LOG28CN EGPO-EGPF

Flight info

Callsign LOG28CN
Flight time N/A
Altitude 23000
Route STN DCT LAGAV N560 ERSON
Aircraft E145/M-SABDFGRW/S

Departure

Time 2026-04-19 01:18
Airport Stornoway Airport (EGPO)

Arrival

Time N/A
Airport Glasgow Airport (EGPF)
Time Latitude Longitude Altitude Speed Heading
2026-04-19 01:07 58.21431 -6.32156 22 ft 0 kts 263°
2026-04-19 01:11 58.21431 -6.32192 21 ft 5 kts 284°
2026-04-19 01:11 58.21462 -6.32276 19 ft 9 kts 277°
2026-04-19 01:11 58.21446 -6.32419 18 ft 5 kts 263°
2026-04-19 01:12 58.21480 -6.32475 17 ft 8 kts 329°
2026-04-19 01:12 58.21532 -6.32557 17 ft 10 kts 271°
2026-04-19 01:12 58.21491 -6.32705 15 ft 14 kts 240°
2026-04-19 01:12 58.21446 -6.32853 15 ft 8 kts 240°
2026-04-19 01:13 58.21443 -6.32863 15 ft 0 kts 240°
2026-04-19 01:14 58.21440 -6.32871 15 ft 2 kts 240°
2026-04-19 01:14 58.21424 -6.32925 15 ft 8 kts 240°
2026-04-19 01:15 58.21394 -6.33063 15 ft 6 kts 303°
2026-04-19 01:15 58.21472 -6.33089 14 ft 16 kts 354°
2026-04-19 01:15 58.21621 -6.33117 14 ft 25 kts 354°
2026-04-19 01:15 58.21816 -6.33155 14 ft 28 kts 354°
2026-04-19 01:16 58.22017 -6.33195 14 ft 27 kts 354°
2026-04-19 01:16 58.22174 -6.33202 14 ft 12 kts 21°
2026-04-19 01:16 58.22189 -6.33222 14 ft 4 kts 197°
2026-04-19 01:16 58.22151 -6.33219 14 ft 8 kts 173°
2026-04-19 01:17 58.21989 -6.33189 14 ft 16 kts 174°
2026-04-19 01:17 58.21981 -6.33188 14 ft 0 kts 174°
2026-04-19 01:17 58.21895 -6.33171 14 ft 46 kts 175°
2026-04-19 01:17 58.21312 -6.33061 16 ft 118 kts 175°
2026-04-19 01:18 58.20418 -6.32871 361 ft 130 kts 175°
2026-04-19 01:18 58.19505 -6.32620 874 ft 139 kts 176°
2026-04-19 01:18 58.18551 -6.32323 1502 ft 142 kts 175°
2026-04-19 01:18 58.17529 -6.31971 1962 ft 158 kts 175°
2026-04-19 01:19 58.16399 -6.31591 2426 ft 175 kts 175°
2026-04-19 01:19 58.15145 -6.31192 2882 ft 192 kts 175°
2026-04-19 01:19 58.13778 -6.30625 3302 ft 213 kts 165°
2026-04-19 01:19 58.12450 -6.29051 3761 ft 239 kts 142°
2026-04-19 01:20 58.11194 -6.26999 4537 ft 239 kts 140°
2026-04-19 01:20 58.09965 -6.24868 5154 ft 250 kts 139°
2026-04-19 01:20 58.08616 -6.22487 5566 ft 272 kts 138°
2026-04-19 01:20 58.07245 -6.20054 6313 ft 273 kts 139°
2026-04-19 01:21 58.05866 -6.17610 7026 ft 275 kts 138°
2026-04-19 01:21 58.04459 -6.15120 7630 ft 281 kts 138°
2026-04-19 01:21 58.03017 -6.12570 8261 ft 286 kts 138°
2026-04-19 01:21 58.01569 -6.10011 8885 ft 290 kts 138°
2026-04-19 01:22 58.00079 -6.07383 9474 ft 295 kts 138°
2026-04-19 01:22 57.98576 -6.04734 10066 ft 299 kts 138°
2026-04-19 01:22 57.97048 -6.02046 10421 ft 313 kts 137°
2026-04-19 01:22 57.95388 -5.99127 10443 ft 337 kts 137°
2026-04-19 01:23 57.93642 -5.96063 10717 ft 349 kts 137°
2026-04-19 01:23 57.91859 -5.92936 11292 ft 351 kts 137°
2026-04-19 01:23 57.90078 -5.89819 11816 ft 353 kts 137°
2026-04-19 01:23 57.88275 -5.86668 12325 ft 356 kts 137°
2026-04-19 01:24 57.86461 -5.83501 12813 ft 359 kts 137°
2026-04-19 01:24 57.84632 -5.80313 13272 ft 363 kts 137°
2026-04-19 01:24 57.82764 -5.77062 13746 ft 365 kts 137°
2026-04-19 01:24 57.80891 -5.73809 14205 ft 369 kts 137°
2026-04-19 01:25 57.79003 -5.70534 14659 ft 372 kts 137°
2026-04-19 01:25 57.77085 -5.67212 15174 ft 375 kts 137°
2026-04-19 01:25 57.75182 -5.63920 15750 ft 378 kts 137°
2026-04-19 01:25 57.73241 -5.60567 16327 ft 381 kts 137°
2026-04-19 01:26 57.71290 -5.57202 16867 ft 384 kts 137°